sensor_id;sensor_type;location;lat;lon;timestamp;pressure;altitude;pressure_sealevel;temperature;humidity
81511;BME280;70931;48.796;8.440;2023-10-13T00:01:39;97295.63;;;19.10;57.21
81511;BME280;70931;48.796;8.440;2023-10-13T00:04:05;97304.47;;;19.42;56.26
81511;BME280;70931;48.796;8.440;2023-10-13T00:06:30;97291.78;;;19.42;56.85
81511;BME280;70931;48.796;8.440;2023-10-13T00:08:55;97295.41;;;19.29;56.83
81511;BME280;70931;48.796;8.440;2023-10-13T00:11:20;97287.69;;;19.33;57.28
81511;BME280;70931;48.796;8.440;2023-10-13T00:13:46;97287.09;;;19.31;56.98
81511;BME280;70931;48.796;8.440;2023-10-13T00:16:11;97287.00;;;19.19;57.81
81511;BME280;70931;48.796;8.440;2023-10-13T00:18:36;97287.91;;;19.31;56.42
81511;BME280;70931;48.796;8.440;2023-10-13T00:21:02;97266.81;;;19.22;56.52
81511;BME280;70931;48.796;8.440;2023-10-13T00:23:27;97284.84;;;19.46;56.39
81511;BME280;70931;48.796;8.440;2023-10-13T00:25:53;97273.59;;;19.49;56.50
81511;BME280;70931;48.796;8.440;2023-10-13T00:28:19;97258.94;;;19.39;54.80
81511;BME280;70931;48.796;8.440;2023-10-13T00:30:44;97260.63;;;19.15;57.21
81511;BME280;70931;48.796;8.440;2023-10-13T00:33:09;97276.72;;;19.28;56.75
81511;BME280;70931;48.796;8.440;2023-10-13T00:35:34;97265.78;;;19.41;56.54
81511;BME280;70931;48.796;8.440;2023-10-13T00:37:59;97269.84;;;19.50;55.93
81511;BME280;70931;48.796;8.440;2023-10-13T00:40:25;97281.69;;;19.31;58.03
81511;BME280;70931;48.796;8.440;2023-10-13T00:42:52;97264.25;;;19.27;56.62
81511;BME280;70931;48.796;8.440;2023-10-13T00:45:17;97264.06;;;19.47;56.48
81511;BME280;70931;48.796;8.440;2023-10-13T00:47:44;97256.28;;;19.32;56.54
81511;BME280;70931;48.796;8.440;2023-10-13T00:50:09;97265.78;;;19.41;55.02
81511;BME280;70931;48.796;8.440;2023-10-13T00:52:35;97259.31;;;19.60;53.95
81511;BME280;70931;48.796;8.440;2023-10-13T00:55:01;97268.81;;;19.08;59.28
81511;BME280;70931;48.796;8.440;2023-10-13T00:57:27;97255.09;;;19.28;56.52
81511;BME280;70931;48.796;8.440;2023-10-13T00:59:53;97263.66;;;19.43;56.49
81511;BME280;70931;48.796;8.440;2023-10-13T01:02:19;97246.09;;;19.34;56.21
81511;BME280;70931;48.796;8.440;2023-10-13T01:04:45;97255.72;;;19.48;57.16
81511;BME280;70931;48.796;8.440;2023-10-13T01:07:10;97251.66;;;19.39;57.11
81511;BME280;70931;48.796;8.440;2023-10-13T01:09:40;97252.09;;;19.36;57.27
81511;BME280;70931;48.796;8.440;2023-10-13T01:12:06;97238.97;;;19.40;54.46
81511;BME280;70931;48.796;8.440;2023-10-13T01:14:31;97251.94;;;19.49;56.11
81511;BME280;70931;48.796;8.440;2023-10-13T01:16:56;97245.78;;;19.60;55.06
81511;BME280;70931;48.796;8.440;2023-10-13T01:19:21;97238.78;;;19.71;53.59
81511;BME280;70931;48.796;8.440;2023-10-13T01:21:47;97218.75;;;19.42;55.17
81511;BME280;70931;48.796;8.440;2023-10-13T01:24:13;97247.88;;;19.76;55.57
81511;BME280;70931;48.796;8.440;2023-10-13T01:26:39;97248.78;;;19.70;55.29
81511;BME280;70931;48.796;8.440;2023-10-13T01:29:06;97246.09;;;19.52;57.01
81511;BME280;70931;48.796;8.440;2023-10-13T01:31:31;97237.53;;;19.55;55.24
81511;BME280;70931;48.796;8.440;2023-10-13T01:33:56;97241.88;;;19.56;57.10
81511;BME280;70931;48.796;8.440;2023-10-13T01:36:22;97209.88;;;19.17;57.65
81511;BME280;70931;48.796;8.440;2023-10-13T01:38:48;97230.28;;;19.13;57.32
81511;BME280;70931;48.796;8.440;2023-10-13T01:41:14;97233.13;;;19.18;57.21
81511;BME280;70931;48.796;8.440;2023-10-13T01:43:39;97230.41;;;19.43;56.35
81511;BME280;70931;48.796;8.440;2023-10-13T01:46:05;97224.13;;;19.60;54.96
81511;BME280;70931;48.796;8.440;2023-10-13T01:48:30;97230.56;;;19.23;58.05
81511;BME280;70931;48.796;8.440;2023-10-13T01:50:56;97217.69;;;19.25;55.70
81511;BME280;70931;48.796;8.440;2023-10-13T01:53:21;97223.78;;;19.39;56.17
81511;BME280;70931;48.796;8.440;2023-10-13T01:55:47;97177.19;;;19.18;56.21
81511;BME280;70931;48.796;8.440;2023-10-13T01:58:13;97214.06;;;19.13;56.90
81511;BME280;70931;48.796;8.440;2023-10-13T02:00:38;97197.00;;;19.12;57.39
81511;BME280;70931;48.796;8.440;2023-10-13T02:03:04;97194.09;;;18.96;57.47
81511;BME280;70931;48.796;8.440;2023-10-13T02:05:29;97202.66;;;18.93;58.29
81511;BME280;70931;48.796;8.440;2023-10-13T02:07:54;97193.03;;;18.97;58.37
81511;BME280;70931;48.796;8.440;2023-10-13T02:10:19;97193.22;;;18.77;59.32
81511;BME280;70931;48.796;8.440;2023-10-13T02:12:45;97171.44;;;18.54;57.99
81511;BME280;70931;48.796;8.440;2023-10-13T02:15:11;97187.81;;;18.77;56.88
81511;BME280;70931;48.796;8.440;2023-10-13T02:17:36;97182.59;;;18.08;59.55
81511;BME280;70931;48.796;8.440;2023-10-13T02:20:02;97154.28;;;18.17;57.83
81511;BME280;70931;48.796;8.440;2023-10-13T02:22:27;97183.94;;;18.48;58.09
81511;BME280;70931;48.796;8.440;2023-10-13T02:24:52;97172.09;;;18.25;58.50
81511;BME280;70931;48.796;8.440;2023-10-13T02:27:18;97171.25;;;18.24;59.31
81511;BME280;70931;48.796;8.440;2023-10-13T02:29:43;97140.38;;;17.89;58.67
81511;BME280;70931;48.796;8.440;2023-10-13T02:32:08;97184.16;;;18.22;58.67
81511;BME280;70931;48.796;8.440;2023-10-13T02:34:33;97159.69;;;18.17;59.29
81511;BME280;70931;48.796;8.440;2023-10-13T02:36:59;97175.44;;;18.20;59.55
81511;BME280;70931;48.796;8.440;2023-10-13T02:39:24;97160.22;;;18.01;58.46
81511;BME280;70931;48.796;8.440;2023-10-13T02:41:49;97164.25;;;17.85;59.32
81511;BME280;70931;48.796;8.440;2023-10-13T02:44:14;97183.97;;;17.86;59.66
81511;BME280;70931;48.796;8.440;2023-10-13T02:46:40;97163.09;;;17.75;60.05
81511;BME280;70931;48.796;8.440;2023-10-13T02:49:06;97176.56;;;17.81;59.73
81511;BME280;70931;48.796;8.440;2023-10-13T02:51:31;97161.13;;;17.88;59.77
81511;BME280;70931;48.796;8.440;2023-10-13T02:53:56;97168.31;;;17.70;60.18
81511;BME280;70931;48.796;8.440;2023-10-13T02:56:22;97157.69;;;17.81;59.24
81511;BME280;70931;48.796;8.440;2023-10-13T02:58:49;97150.03;;;17.72;60.09
81511;BME280;70931;48.796;8.440;2023-10-13T03:01:14;97143.50;;;17.48;60.98
81511;BME280;70931;48.796;8.440;2023-10-13T03:03:40;97152.16;;;17.70;59.51
81511;BME280;70931;48.796;8.440;2023-10-13T03:06:05;97153.31;;;17.80;59.50
81511;BME280;70931;48.796;8.440;2023-10-13T03:08:30;97145.91;;;17.69;59.95
81511;BME280;70931;48.796;8.440;2023-10-13T03:10:55;97153.88;;;17.89;59.81
81511;BME280;70931;48.796;8.440;2023-10-13T03:13:20;97143.22;;;17.69;60.31
81511;BME280;70931;48.796;8.440;2023-10-13T03:15:46;97140.00;;;17.47;61.30
81511;BME280;70931;48.796;8.440;2023-10-13T03:18:11;97119.25;;;17.54;59.30
81511;BME280;70931;48.796;8.440;2023-10-13T03:20:38;97143.88;;;17.96;58.21
81511;BME280;70931;48.796;8.440;2023-10-13T03:23:03;97141.63;;;17.93;58.74
81511;BME280;70931;48.796;8.440;2023-10-13T03:25:30;97147.66;;;17.57;60.33
81511;BME280;70931;48.796;8.440;2023-10-13T03:27:56;97146.03;;;17.43;61.43
81511;BME280;70931;48.796;8.440;2023-10-13T03:30:22;97136.78;;;17.70;59.74
81511;BME280;70931;48.796;8.440;2023-10-13T03:32:47;97065.38;;;17.10;61.54
81511;BME280;70931;48.796;8.440;2023-10-13T03:35:13;97119.00;;;17.18;61.58
81511;BME280;70931;48.796;8.440;2023-10-13T03:37:38;97125.00;;;17.20;61.74
81511;BME280;70931;48.796;8.440;2023-10-13T03:40:05;97132.13;;;17.46;60.84
81511;BME280;70931;48.796;8.440;2023-10-13T03:42:31;97139.03;;;17.35;61.72
81511;BME280;70931;48.796;8.440;2023-10-13T03:44:56;97106.31;;;17.25;61.29
81511;BME280;70931;48.796;8.440;2023-10-13T03:47:21;97134.22;;;17.44;61.44
81511;BME280;70931;48.796;8.440;2023-10-13T03:49:46;97128.00;;;17.43;61.54
81511;BME280;70931;48.796;8.440;2023-10-13T03:52:12;97122.78;;;17.48;61.76
81511;BME280;70931;48.796;8.440;2023-10-13T03:54:37;97127.53;;;17.08;62.54
81511;BME280;70931;48.796;8.440;2023-10-13T03:57:02;97117.47;;;17.35;61.38
81511;BME280;70931;48.796;8.440;2023-10-13T03:59:27;97126.47;;;17.16;62.17
81511;BME280;70931;48.796;8.440;2023-10-13T04:01:53;97123.72;;;17.29;61.92
81511;BME280;70931;48.796;8.440;2023-10-13T04:04:18;97119.63;;;17.14;62.62
81511;BME280;70931;48.796;8.440;2023-10-13T04:06:44;97108.06;;;17.13;61.92
81511;BME280;70931;48.796;8.440;2023-10-13T04:09:13;97109.50;;;17.09;62.43
81511;BME280;70931;48.796;8.440;2023-10-13T04:11:38;97126.47;;;17.16;62.04
81511;BME280;70931;48.796;8.440;2023-10-13T04:14:03;97119.97;;;16.86;63.33
81511;BME280;70931;48.796;8.440;2023-10-13T04:16:28;97071.72;;;16.78;62.33
81511;BME280;70931;48.796;8.440;2023-10-13T04:18:54;97117.09;;;17.25;60.96
81511;BME280;70931;48.796;8.440;2023-10-13T04:21:19;97110.41;;;17.34;60.85
81511;BME280;70931;48.796;8.440;2023-10-13T04:23:44;97113.38;;;17.26;61.48
81511;BME280;70931;48.796;8.440;2023-10-13T04:26:09;97096.53;;;17.31;60.49
81511;BME280;70931;48.796;8.440;2023-10-13T04:28:35;97112.06;;;17.42;60.95
81511;BME280;70931;48.796;8.440;2023-10-13T04:31:00;97114.03;;;17.22;60.93
81511;BME280;70931;48.796;8.440;2023-10-13T04:33:29;97107.16;;;17.19;60.89
81511;BME280;70931;48.796;8.440;2023-10-13T04:35:55;97106.47;;;17.37;60.75
81511;BME280;70931;48.796;8.440;2023-10-13T04:38:20;97102.50;;;17.39;60.71
81511;BME280;70931;48.796;8.440;2023-10-13T04:40:45;97090.50;;;17.35;60.77
81511;BME280;70931;48.796;8.440;2023-10-13T04:43:10;97095.91;;;17.35;60.85
81511;BME280;70931;48.796;8.440;2023-10-13T04:45:36;97081.47;;;17.23;61.08
81511;BME280;70931;48.796;8.440;2023-10-13T04:48:02;97089.16;;;16.75;62.85
81511;BME280;70931;48.796;8.440;2023-10-13T04:50:28;97097.75;;;16.97;62.54
81511;BME280;70931;48.796;8.440;2023-10-13T04:52:53;97090.75;;;16.89;62.38
81511;BME280;70931;48.796;8.440;2023-10-13T04:55:19;97078.97;;;16.84;62.33
81511;BME280;70931;48.796;8.440;2023-10-13T04:57:44;97093.78;;;17.06;61.98
81511;BME280;70931;48.796;8.440;2023-10-13T05:00:10;97075.75;;;17.06;62.36
81511;BME280;70931;48.796;8.440;2023-10-13T05:02:37;97082.09;;;16.81;63.01
81511;BME280;70931;48.796;8.440;2023-10-13T05:05:03;97081.25;;;16.74;62.91
81511;BME280;70931;48.796;8.440;2023-10-13T05:07:28;97079.22;;;16.69;63.11
81511;BME280;70931;48.796;8.440;2023-10-13T05:09:54;97073.53;;;16.90;62.60
81511;BME280;70931;48.796;8.440;2023-10-13T05:12:19;97078.00;;;16.45;64.14
81511;BME280;70931;48.796;8.440;2023-10-13T05:14:44;97055.63;;;16.51;63.48
81511;BME280;70931;48.796;8.440;2023-10-13T05:17:09;97066.78;;;16.68;63.34
81511;BME280;70931;48.796;8.440;2023-10-13T05:19:35;97064.94;;;16.69;63.09
81511;BME280;70931;48.796;8.440;2023-10-13T05:22:00;97019.22;;;16.36;63.39
81511;BME280;70931;48.796;8.440;2023-10-13T05:24:25;97055.56;;;16.78;63.21
81511;BME280;70931;48.796;8.440;2023-10-13T05:26:51;97051.19;;;16.90;63.52
81511;BME280;70931;48.796;8.440;2023-10-13T05:29:17;97045.53;;;16.47;64.57
81511;BME280;70931;48.796;8.440;2023-10-13T05:31:42;97053.16;;;16.63;64.18
81511;BME280;70931;48.796;8.440;2023-10-13T05:34:07;97059.38;;;16.57;64.03
81511;BME280;70931;48.796;8.440;2023-10-13T05:36:33;97065.09;;;16.74;63.75
81511;BME280;70931;48.796;8.440;2023-10-13T05:38:58;97034.75;;;16.47;64.24
81511;BME280;70931;48.796;8.440;2023-10-13T05:41:24;97063.59;;;16.20;65.96
81511;BME280;70931;48.796;8.440;2023-10-13T05:43:49;97061.69;;;16.34;65.33
81511;BME280;70931;48.796;8.440;2023-10-13T05:46:14;97054.00;;;16.57;64.15
81511;BME280;70931;48.796;8.440;2023-10-13T05:48:40;97049.25;;;16.39;64.38
81511;BME280;70931;48.796;8.440;2023-10-13T05:51:05;97061.88;;;16.45;64.18
81511;BME280;70931;48.796;8.440;2023-10-13T05:53:30;97068.44;;;16.76;63.80
81511;BME280;70931;48.796;8.440;2023-10-13T05:56:00;97078.03;;;16.59;64.27
81511;BME280;70931;48.796;8.440;2023-10-13T05:58:25;97058.97;;;16.47;64.87
81511;BME280;70931;48.796;8.440;2023-10-13T06:00:51;97063.53;;;16.46;64.59
81511;BME280;70931;48.796;8.440;2023-10-13T06:03:16;97072.44;;;16.53;64.42
81511;BME280;70931;48.796;8.440;2023-10-13T06:05:41;97071.31;;;16.81;63.66
81511;BME280;70931;48.796;8.440;2023-10-13T06:08:06;97066.66;;;16.30;65.66
81511;BME280;70931;48.796;8.440;2023-10-13T06:10:31;97058.44;;;16.06;66.77
81511;BME280;70931;48.796;8.440;2023-10-13T06:12:57;97072.25;;;16.29;65.16
81511;BME280;70931;48.796;8.440;2023-10-13T06:15:22;97048.03;;;16.29;65.21
81511;BME280;70931;48.796;8.440;2023-10-13T06:17:47;97074.31;;;16.33;65.31
81511;BME280;70931;48.796;8.440;2023-10-13T06:20:12;97066.22;;;16.46;64.90
81511;BME280;70931;48.796;8.440;2023-10-13T06:22:38;97066.81;;;16.48;64.13
81511;BME280;70931;48.796;8.440;2023-10-13T06:25:03;97058.16;;;16.33;65.30
81511;BME280;70931;48.796;8.440;2023-10-13T06:27:28;97033.56;;;16.23;64.42
81511;BME280;70931;48.796;8.440;2023-10-13T06:29:54;97063.25;;;16.68;63.48
81511;BME280;70931;48.796;8.440;2023-10-13T06:32:20;97063.25;;;16.68;62.96
81511;BME280;70931;48.796;8.440;2023-10-13T06:34:45;97067.53;;;16.88;62.70
81511;BME280;70931;48.796;8.440;2023-10-13T06:37:14;97068.69;;;16.61;64.14
81511;BME280;70931;48.796;8.440;2023-10-13T06:39:40;97051.44;;;16.75;63.22
81511;BME280;70931;48.796;8.440;2023-10-13T06:42:05;97070.63;;;16.98;62.09
81511;BME280;70931;48.796;8.440;2023-10-13T06:44:30;97069.09;;;17.09;61.99
81511;BME280;70931;48.796;8.440;2023-10-13T06:46:55;97066.69;;;16.94;62.07
81511;BME280;70931;48.796;8.440;2023-10-13T06:49:20;97068.34;;;16.95;62.09
81511;BME280;70931;48.796;8.440;2023-10-13T06:51:46;97070.13;;;17.08;61.51
81511;BME280;70931;48.796;8.440;2023-10-13T06:54:11;97071.09;;;17.20;61.28
81511;BME280;70931;48.796;8.440;2023-10-13T06:56:36;97070.59;;;17.36;60.61
81511;BME280;70931;48.796;8.440;2023-10-13T06:59:02;97074.16;;;17.30;61.25
81511;BME280;70931;48.796;8.440;2023-10-13T07:01:27;97066.03;;;17.37;60.87
81511;BME280;70931;48.796;8.440;2023-10-13T07:03:52;97068.41;;;17.51;60.55
81511;BME280;70931;48.796;8.440;2023-10-13T07:06:18;97056.63;;;17.46;59.58
81511;BME280;70931;48.796;8.440;2023-10-13T07:08:44;97071.53;;;17.48;60.03
81511;BME280;70931;48.796;8.440;2023-10-13T07:11:09;97075.41;;;17.65;59.14
81511;BME280;70931;48.796;8.440;2023-10-13T07:13:34;97079.16;;;17.64;60.76
81511;BME280;70931;48.796;8.440;2023-10-13T07:16:00;97080.31;;;17.75;60.02
81511;BME280;70931;48.796;8.440;2023-10-13T07:18:26;97086.31;;;17.39;62.35
81511;BME280;70931;48.796;8.440;2023-10-13T07:20:51;97075.53;;;17.39;61.23
81511;BME280;70931;48.796;8.440;2023-10-13T07:23:17;97049.66;;;17.38;61.32
81511;BME280;70931;48.796;8.440;2023-10-13T07:25:42;97072.38;;;17.49;62.66
81511;BME280;70931;48.796;8.440;2023-10-13T07:28:07;97072.09;;;17.63;60.70
81511;BME280;70931;48.796;8.440;2023-10-13T07:30:33;97074.53;;;17.72;60.40
81511;BME280;70931;48.796;8.440;2023-10-13T07:32:58;97007.50;;;17.44;59.85
81511;BME280;70931;48.796;8.440;2023-10-13T07:35:23;97058.69;;;17.82;60.65
81511;BME280;70931;48.796;8.440;2023-10-13T07:37:49;97067.16;;;18.10;59.20
81511;BME280;70931;48.796;8.440;2023-10-13T07:40:14;97058.75;;;18.18;59.34
81511;BME280;70931;48.796;8.440;2023-10-13T07:42:39;97054.00;;;18.38;57.43
81511;BME280;70931;48.796;8.440;2023-10-13T07:45:06;97050.94;;;18.53;56.43
81511;BME280;70931;48.796;8.440;2023-10-13T07:47:31;97049.22;;;18.58;56.24
81511;BME280;70931;48.796;8.440;2023-10-13T07:49:56;97040.94;;;18.71;54.82
81511;BME280;70931;48.796;8.440;2023-10-13T07:52:22;97053.56;;;18.77;57.25
81511;BME280;70931;48.796;8.440;2023-10-13T07:54:49;97047.56;;;18.94;53.92
81511;BME280;70931;48.796;8.440;2023-10-13T07:57:15;97042.59;;;19.20;55.37
81511;BME280;70931;48.796;8.440;2023-10-13T07:59:41;97049.84;;;19.38;55.11
81511;BME280;70931;48.796;8.440;2023-10-13T08:02:07;97045.22;;;19.57;55.52
81511;BME280;70931;48.796;8.440;2023-10-13T08:04:32;97043.13;;;19.70;53.47
81511;BME280;70931;48.796;8.440;2023-10-13T08:06:57;97039.63;;;19.81;52.10
81511;BME280;70931;48.796;8.440;2023-10-13T08:09:22;97041.03;;;19.96;51.35
81511;BME280;70931;48.796;8.440;2023-10-13T08:11:48;97036.09;;;20.16;51.58
81511;BME280;70931;48.796;8.440;2023-10-13T08:14:13;97043.28;;;20.22;50.44
81511;BME280;70931;48.796;8.440;2023-10-13T08:16:39;97043.19;;;20.40;50.84
81511;BME280;70931;48.796;8.440;2023-10-13T08:19:04;97044.56;;;20.66;52.47
81511;BME280;70931;48.796;8.440;2023-10-13T08:21:29;97036.03;;;20.85;49.07
81511;BME280;70931;48.796;8.440;2023-10-13T08:23:55;97015.72;;;20.99;48.46
81511;BME280;70931;48.796;8.440;2023-10-13T08:26:21;97023.50;;;21.08;49.36
81511;BME280;70931;48.796;8.440;2023-10-13T08:28:46;97006.75;;;21.11;48.47
81511;BME280;70931;48.796;8.440;2023-10-13T08:31:11;97039.66;;;21.31;47.03
81511;BME280;70931;48.796;8.440;2023-10-13T08:33:37;97030.72;;;21.75;41.06
81511;BME280;70931;48.796;8.440;2023-10-13T08:36:02;97015.91;;;21.99;39.64
81511;BME280;70931;48.796;8.440;2023-10-13T08:38:27;97041.72;;;22.35;39.44
81511;BME280;70931;48.796;8.440;2023-10-13T08:40:53;97024.09;;;22.38;40.52
81511;BME280;70931;48.796;8.440;2023-10-13T08:43:23;97039.97;;;22.46;41.60
81511;BME280;70931;48.796;8.440;2023-10-13T08:45:49;97044.16;;;22.53;42.24
81511;BME280;70931;48.796;8.440;2023-10-13T08:48:14;97030.91;;;22.79;37.77
81511;BME280;70931;48.796;8.440;2023-10-13T08:50:45;97028.53;;;23.04;37.79
81511;BME280;70931;48.796;8.440;2023-10-13T08:53:10;97028.53;;;23.31;35.05
81511;BME280;70931;48.796;8.440;2023-10-13T08:55:36;97027.16;;;23.50;35.01
81511;BME280;70931;48.796;8.440;2023-10-13T08:58:01;97031.91;;;23.64;36.96
81511;BME280;70931;48.796;8.440;2023-10-13T09:00:27;97016.91;;;23.62;33.94
81511;BME280;70931;48.796;8.440;2023-10-13T09:02:52;97016.03;;;23.88;33.14
81511;BME280;70931;48.796;8.440;2023-10-13T09:05:18;97001.56;;;24.14;35.75
81511;BME280;70931;48.796;8.440;2023-10-13T09:07:46;97011.09;;;24.17;33.52
81511;BME280;70931;48.796;8.440;2023-10-13T09:10:22;97015.34;;;24.39;33.21
81511;BME280;70931;48.796;8.440;2023-10-13T09:12:54;97015.22;;;24.61;33.67
81511;BME280;70931;48.796;8.440;2023-10-13T09:15:28;97023.19;;;24.78;32.29
81511;BME280;70931;48.796;8.440;2023-10-13T09:17:54;97023.31;;;25.03;34.78
81511;BME280;70931;48.796;8.440;2023-10-13T09:20:31;97006.94;;;24.93;32.38
81511;BME280;70931;48.796;8.440;2023-10-13T09:22:57;97004.50;;;25.02;31.22
81511;BME280;70931;48.796;8.440;2023-10-13T09:25:22;97016.09;;;25.44;31.37
81511;BME280;70931;48.796;8.440;2023-10-13T09:27:49;97022.97;;;25.92;31.64
81511;BME280;70931;48.796;8.440;2023-10-13T09:30:14;97011.78;;;26.09;29.47
81511;BME280;70931;48.796;8.440;2023-10-13T09:32:39;97010.41;;;26.51;30.37
81511;BME280;70931;48.796;8.440;2023-10-13T09:35:05;96976.00;;;26.05;30.55
81511;BME280;70931;48.796;8.440;2023-10-13T09:37:33;96977.63;;;26.31;29.34
81511;BME280;70931;48.796;8.440;2023-10-13T09:39:59;96999.59;;;26.90;28.96
81511;BME280;70931;48.796;8.440;2023-10-13T09:42:25;96999.81;;;27.09;27.93
81511;BME280;70931;48.796;8.440;2023-10-13T09:44:50;96970.22;;;27.11;28.19
81511;BME280;70931;48.796;8.440;2023-10-13T09:47:21;96989.09;;;27.66;27.18
81511;BME280;70931;48.796;8.440;2023-10-13T09:49:47;96997.75;;;27.79;27.67
81511;BME280;70931;48.796;8.440;2023-10-13T09:52:15;96992.53;;;28.16;27.83
81511;BME280;70931;48.796;8.440;2023-10-13T09:54:42;96995.25;;;28.45;26.45
81511;BME280;70931;48.796;8.440;2023-10-13T09:57:13;97001.22;;;28.80;26.73
81511;BME280;70931;48.796;8.440;2023-10-13T09:59:46;96996.94;;;28.69;25.94
81511;BME280;70931;48.796;8.440;2023-10-13T10:02:13;96995.53;;;28.72;24.78
81511;BME280;70931;48.796;8.440;2023-10-13T10:04:38;96979.25;;;28.28;24.91
81511;BME280;70931;48.796;8.440;2023-10-13T10:07:03;96991.56;;;29.07;25.74
81511;BME280;70931;48.796;8.440;2023-10-13T10:09:31;96991.00;;;28.57;24.89
81511;BME280;70931;48.796;8.440;2023-10-13T10:17:18;96975.72;;;29.41;23.43
81511;BME280;70931;48.796;8.440;2023-10-13T10:19:51;96983.06;;;29.83;22.98
81511;BME280;70931;48.796;8.440;2023-10-13T10:24:57;96967.38;;;29.65;23.75
81511;BME280;70931;48.796;8.440;2023-10-13T10:27:28;96969.06;;;29.98;23.39
81511;BME280;70931;48.796;8.440;2023-10-13T10:29:54;96961.75;;;30.39;23.04
81511;BME280;70931;48.796;8.440;2023-10-13T10:32:19;96959.31;;;30.65;21.35
81511;BME280;70931;48.796;8.440;2023-10-13T10:34:44;96960.97;;;30.20;21.62
81511;BME280;70931;48.796;8.440;2023-10-13T10:37:10;96962.91;;;30.79;21.43
81511;BME280;70931;48.796;8.440;2023-10-13T10:39:36;96961.28;;;31.77;20.01
81511;BME280;70931;48.796;8.440;2023-10-13T10:42:10;96960.25;;;31.87;19.51
81511;BME280;70931;48.796;8.440;2023-10-13T10:44:41;96953.41;;;32.06;19.75
81511;BME280;70931;48.796;8.440;2023-10-13T10:47:14;96945.47;;;32.36;20.16
81511;BME280;70931;48.796;8.440;2023-10-13T10:49:40;96954.09;;;32.34;19.65
81511;BME280;70931;48.796;8.440;2023-10-13T10:52:09;96927.28;;;32.35;19.08
81511;BME280;70931;48.796;8.440;2023-10-13T10:54:35;96946.38;;;31.78;19.55
81511;BME280;70931;48.796;8.440;2023-10-13T10:57:01;96922.19;;;31.53;20.00
81511;BME280;70931;48.796;8.440;2023-10-13T10:59:34;96918.25;;;30.96;19.82
81511;BME280;70931;48.796;8.440;2023-10-13T11:01:59;96934.09;;;32.06;19.83
81511;BME280;70931;48.796;8.440;2023-10-13T11:04:24;96932.69;;;32.40;18.87
81511;BME280;70931;48.796;8.440;2023-10-13T11:06:51;96943.25;;;33.34;18.25
81511;BME280;70931;48.796;8.440;2023-10-13T11:09:32;96921.28;;;33.54;18.38
81511;BME280;70931;48.796;8.440;2023-10-13T11:14:29;96924.59;;;32.91;18.56
81511;BME280;70931;48.796;8.440;2023-10-13T11:16:58;96931.88;;;33.61;18.59
81511;BME280;70931;48.796;8.440;2023-10-13T11:19:34;96934.78;;;33.56;18.30
81511;BME280;70931;48.796;8.440;2023-10-13T11:22:16;96915.22;;;32.22;18.84
81511;BME280;70931;48.796;8.440;2023-10-13T11:24:42;96912.19;;;31.43;19.46
81511;BME280;70931;48.796;8.440;2023-10-13T11:27:16;96890.16;;;31.88;19.68
81511;BME280;70931;48.796;8.440;2023-10-13T11:29:41;96891.97;;;31.70;19.31
81511;BME280;70931;48.796;8.440;2023-10-13T11:32:06;96888.81;;;31.41;19.12
81511;BME280;70931;48.796;8.440;2023-10-13T11:34:32;96909.28;;;32.06;18.61
81511;BME280;70931;48.796;8.440;2023-10-13T11:36:57;96889.59;;;31.77;18.90
81511;BME280;70931;48.796;8.440;2023-10-13T11:39:22;96908.91;;;31.19;19.50
81511;BME280;70931;48.796;8.440;2023-10-13T11:41:47;96906.91;;;31.91;19.73
81511;BME280;70931;48.796;8.440;2023-10-13T11:44:13;96899.88;;;32.47;18.85
81511;BME280;70931;48.796;8.440;2023-10-13T11:46:38;96888.75;;;32.60;17.93
81511;BME280;70931;48.796;8.440;2023-10-13T11:49:07;96881.44;;;32.56;18.71
81511;BME280;70931;48.796;8.440;2023-10-13T11:51:32;96889.84;;;32.51;18.64
81511;BME280;70931;48.796;8.440;2023-10-13T11:53:58;96877.06;;;32.63;18.54
81511;BME280;70931;48.796;8.440;2023-10-13T11:56:24;96874.38;;;32.98;17.74
81511;BME280;70931;48.796;8.440;2023-10-13T11:58:50;96867.59;;;33.55;17.37
81511;BME280;70931;48.796;8.440;2023-10-13T12:01:16;96851.19;;;33.59;17.25
81511;BME280;70931;48.796;8.440;2023-10-13T12:03:42;96875.91;;;33.64;17.02
81511;BME280;70931;48.796;8.440;2023-10-13T12:06:08;96855.75;;;33.38;17.33
81511;BME280;70931;48.796;8.440;2023-10-13T12:08:34;96877.88;;;33.29;17.37
81511;BME280;70931;48.796;8.440;2023-10-13T12:10:59;96838.28;;;32.77;17.25
81511;BME280;70931;48.796;8.440;2023-10-13T12:13:24;96845.34;;;33.35;17.91
81511;BME280;70931;48.796;8.440;2023-10-13T12:15:49;96843.84;;;33.71;17.05
81511;BME280;70931;48.796;8.440;2023-10-13T12:18:15;96850.56;;;34.92;17.41
81511;BME280;70931;48.796;8.440;2023-10-13T12:20:41;96858.03;;;35.21;16.55
81511;BME280;70931;48.796;8.440;2023-10-13T12:23:06;96851.44;;;34.47;16.79
81511;BME280;70931;48.796;8.440;2023-10-13T12:25:31;96843.03;;;33.54;17.01
81511;BME280;70931;48.796;8.440;2023-10-13T12:27:57;96842.47;;;34.50;16.54
81511;BME280;70931;48.796;8.440;2023-10-13T12:30:25;96840.34;;;35.05;15.70
81511;BME280;70931;48.796;8.440;2023-10-13T12:32:50;96832.22;;;33.95;16.88
81511;BME280;70931;48.796;8.440;2023-10-13T12:35:15;96838.50;;;34.21;16.48
81511;BME280;70931;48.796;8.440;2023-10-13T12:37:41;96829.88;;;33.51;17.39
81511;BME280;70931;48.796;8.440;2023-10-13T12:40:07;96816.66;;;34.28;16.22
81511;BME280;70931;48.796;8.440;2023-10-13T12:42:33;96810.56;;;34.44;16.58
81511;BME280;70931;48.796;8.440;2023-10-13T12:44:58;96808.25;;;35.04;16.10
81511;BME280;70931;48.796;8.440;2023-10-13T12:47:23;96808.13;;;35.21;15.66
81511;BME280;70931;48.796;8.440;2023-10-13T12:49:49;96798.28;;;35.03;15.75
81511;BME280;70931;48.796;8.440;2023-10-13T12:52:14;96807.16;;;35.17;16.42
81511;BME280;70931;48.796;8.440;2023-10-13T12:54:40;96802.53;;;35.42;15.79
81511;BME280;70931;48.796;8.440;2023-10-13T12:57:05;96797.63;;;35.92;14.91
81511;BME280;70931;48.796;8.440;2023-10-13T12:59:30;96786.00;;;36.23;14.89
81511;BME280;70931;48.796;8.440;2023-10-13T13:01:55;96794.34;;;36.23;15.07
81511;BME280;70931;48.796;8.440;2023-10-13T13:04:21;96771.47;;;35.81;15.21